createdAt,value
2017-12-01T00:00:48.847Z,15.98
2017-12-01T00:03:16.325Z,19.12
2017-12-01T00:05:43.789Z,17.12
2017-12-01T00:08:11.362Z,16.75
2017-12-01T00:10:38.838Z,17.92
2017-12-01T00:13:07.087Z,17.62
2017-12-01T00:15:34.551Z,18.58
2017-12-01T00:18:03.525Z,18.77
2017-12-01T00:20:30.989Z,17.42
2017-12-01T00:22:58.553Z,19.62
2017-12-01T00:25:26.013Z,16.90
2017-12-01T00:27:53.576Z,18.75
2017-12-01T00:30:21.042Z,18.50
2017-12-01T00:32:49.296Z,16.65
2017-12-01T00:35:16.865Z,17.70
2017-12-01T00:37:44.420Z,18.60
2017-12-01T00:40:11.897Z,18.48
2017-12-01T00:42:40.131Z,19.25
2017-12-01T00:45:07.610Z,20.05
2017-12-01T00:47:36.598Z,17.73
2017-12-01T00:50:04.072Z,20.45
2017-12-01T00:52:32.305Z,19.02
2017-12-01T00:54:59.794Z,18.98
2017-12-01T00:57:27.262Z,19.40
2017-12-01T00:59:55.506Z,19.40
2017-12-01T01:02:22.969Z,20.67
2017-12-01T01:04:50.537Z,19.92
2017-12-01T01:07:17.996Z,22.58
2017-12-01T01:09:45.549Z,20.30
2017-12-01T01:12:13.017Z,19.85
2017-12-01T01:14:40.481Z,20.33
2017-12-01T01:17:08.746Z,18.37
2017-12-01T01:19:36.207Z,19.02
2017-12-01T01:22:03.668Z,20.75
2017-12-01T01:24:31.946Z,17.75
2017-12-01T01:27:00.187Z,17.75
2017-12-01T01:29:27.655Z,18.90
2017-12-01T01:31:55.127Z,18.75
2017-12-01T01:34:22.685Z,17.67
2017-12-01T01:36:50.242Z,17.48
2017-12-01T01:39:17.801Z,18.10
2017-12-01T01:41:45.281Z,18.12
2017-12-01T01:44:13.514Z,18.90
2017-12-01T01:46:41.021Z,19.08
2017-12-01T01:49:08.542Z,18.35
2017-12-01T01:51:36.006Z,20.25
2017-12-01T01:54:03.483Z,19.15
2017-12-01T01:56:31.713Z,20.83
2017-12-01T01:58:59.290Z,19.20
2017-12-01T02:01:26.759Z,17.83
2017-12-01T02:03:54.233Z,20.15
2017-12-01T02:06:22.462Z,18.23
2017-12-01T02:08:49.930Z,17.85
2017-12-01T02:11:17.515Z,18.33
2017-12-01T02:13:44.976Z,17.60
2017-12-01T02:16:13.209Z,19.60
2017-12-01T02:18:40.665Z,18.52
2017-12-01T02:21:08.193Z,18.92
2017-12-01T02:23:35.711Z,19.80
2017-12-01T02:26:03.949Z,19.80
2017-12-01T02:28:31.411Z,18.75
2017-12-01T02:30:58.991Z,19.45
2017-12-01T02:33:26.452Z,18.42
2017-12-01T02:35:53.914Z,18.17
2017-12-01T02:38:22.183Z,17.00
2017-12-01T02:40:50.420Z,19.00
2017-12-01T02:43:17.875Z,17.25
2017-12-01T02:45:45.470Z,17.37
2017-12-01T02:48:13.033Z,18.35
2017-12-01T02:50:40.506Z,18.20
2017-12-01T02:53:08.742Z,19.70
2017-12-01T02:55:36.213Z,19.98
2017-12-01T02:58:03.773Z,18.67
2017-12-01T03:00:31.434Z,19.00
2017-12-01T03:02:58.944Z,20.08
2017-12-01T03:05:26.397Z,19.17
2017-12-01T03:07:53.873Z,19.62
2017-12-01T03:10:21.337Z,19.67
2017-12-01T03:12:48.838Z,20.52
2017-12-01T03:15:17.066Z,18.70
2017-12-01T03:17:44.529Z,20.17
2017-12-01T03:20:11.998Z,19.60
2017-12-01T03:22:39.573Z,20.17
2017-12-01T03:25:07.146Z,21.73
2017-12-01T03:27:35.399Z,21.67
2017-12-01T03:30:02.958Z,22.42
2017-12-01T03:32:30.523Z,23.17
2017-12-01T03:34:58.084Z,21.90
2017-12-01T03:37:25.634Z,21.83
2017-12-01T03:39:53.109Z,21.65
2017-12-01T03:42:21.350Z,20.77
2017-12-01T03:44:48.879Z,21.98
2017-12-01T03:47:16.347Z,21.20
2017-12-01T03:49:43.814Z,22.25
2017-12-01T03:52:11.297Z,20.58
2017-12-01T03:54:38.766Z,22.85
2017-12-01T03:57:07.032Z,22.73
2017-12-01T03:59:34.498Z,23.40
2017-12-01T04:02:02.727Z,22.35
2017-12-01T04:04:30.198Z,23.23
2017-12-01T04:06:57.657Z,22.33
2017-12-01T04:09:25.133Z,21.58
2017-12-01T04:11:52.746Z,24.50
2017-12-01T04:14:20.294Z,21.77
2017-12-01T04:16:47.764Z,22.25
2017-12-01T04:19:15.266Z,22.13
2017-12-01T04:21:42.826Z,22.87
2017-12-01T04:24:10.390Z,21.30
2017-12-01T04:26:37.938Z,23.02
2017-12-01T04:29:05.499Z,20.98
2017-12-01T04:31:33.068Z,21.67
2017-12-01T04:34:00.621Z,22.65
2017-12-01T04:36:28.099Z,20.15
2017-12-01T04:38:56.325Z,23.27
2017-12-01T04:41:23.801Z,22.87
2017-12-01T04:43:52.083Z,21.42
2017-12-01T04:46:19.562Z,21.40
2017-12-01T04:48:47.808Z,22.87
2017-12-01T04:51:15.306Z,21.45
2017-12-01T04:53:42.830Z,25.40
2017-12-01T04:56:10.298Z,22.08
2017-12-01T04:58:38.569Z,21.77
2017-12-01T05:01:06.029Z,22.17
2017-12-01T05:03:34.302Z,20.90
2017-12-01T05:06:01.809Z,22.45
2017-12-01T05:08:29.277Z,23.67
2017-12-01T05:10:56.746Z,21.48
2017-12-01T05:13:24.221Z,23.10
2017-12-01T05:15:51.682Z,22.55
2017-12-01T05:18:19.145Z,21.37
2017-12-01T05:20:47.410Z,23.05
2017-12-01T05:23:14.873Z,25.70
2017-12-01T05:25:42.421Z,24.52
2017-12-01T05:28:11.418Z,21.33
2017-12-01T05:30:38.970Z,21.02
2017-12-01T05:33:06.522Z,23.83
2017-12-01T05:35:34.093Z,24.90
2017-12-01T05:38:01.562Z,22.87
2017-12-01T05:40:29.028Z,23.40
2017-12-01T05:42:57.285Z,20.85
2017-12-01T05:45:24.862Z,22.23
2017-12-01T05:47:53.098Z,23.05
2017-12-01T05:50:20.565Z,23.17
2017-12-01T05:52:48.038Z,22.73
2017-12-01T05:55:15.510Z,26.90
2017-12-01T05:57:43.762Z,24.05
2017-12-01T06:00:11.401Z,22.92
2017-12-01T06:02:38.856Z,23.25
2017-12-01T06:05:06.342Z,23.08
2017-12-01T06:07:33.813Z,22.33
2017-12-01T06:10:02.076Z,22.42
2017-12-01T06:12:29.550Z,23.48
2017-12-01T06:14:57.777Z,25.48
2017-12-01T06:17:25.259Z,24.12
2017-12-01T06:19:52.734Z,25.15
2017-12-01T06:22:20.992Z,25.55
2017-12-01T06:24:48.465Z,24.87
2017-12-01T06:27:16.697Z,22.37
2017-12-01T06:29:44.162Z,22.30
2017-12-01T06:32:11.630Z,23.20
2017-12-01T06:34:39.139Z,24.58
2017-12-01T06:37:06.705Z,22.77
2017-12-01T06:39:34.219Z,22.17
2017-12-01T06:42:01.775Z,23.38
2017-12-01T06:44:30.014Z,25.85
2017-12-01T06:46:57.606Z,25.17
2017-12-01T06:49:25.064Z,24.65
2017-12-01T06:51:52.626Z,24.80
2017-12-01T06:54:20.291Z,23.75
2017-12-01T06:56:47.758Z,24.33
2017-12-01T06:59:15.994Z,23.33
2017-12-01T07:01:43.466Z,21.20
2017-12-01T07:04:10.946Z,24.35
2017-12-01T07:06:39.173Z,24.95
2017-12-01T07:09:06.638Z,23.17
2017-12-01T07:11:34.114Z,24.40
2017-12-01T07:14:01.598Z,22.67
2017-12-01T07:16:29.900Z,22.13
2017-12-01T07:18:57.369Z,20.95
2017-12-01T07:21:24.884Z,20.40
2017-12-01T07:23:52.575Z,20.73
2017-12-01T07:26:32.728Z,23.00
2017-12-01T07:29:00.255Z,20.73
2017-12-01T07:31:28.563Z,22.58
2017-12-01T07:33:56.166Z,21.52
2017-12-01T07:36:23.638Z,22.08
2017-12-01T07:38:51.161Z,21.52
2017-12-01T07:41:18.838Z,21.48
2017-12-01T07:43:47.181Z,21.25
2017-12-01T07:46:14.670Z,20.90
2017-12-01T07:48:42.129Z,21.42
2017-12-01T07:51:09.601Z,23.20
2017-12-01T07:53:37.063Z,23.83
2017-12-01T07:56:05.294Z,23.38
2017-12-01T07:58:32.779Z,22.75
2017-12-01T08:01:00.233Z,21.80
2017-12-01T08:03:27.713Z,22.42
2017-12-01T08:05:55.950Z,20.98
2017-12-01T08:08:23.418Z,23.52
2017-12-01T08:10:50.882Z,20.95
2017-12-01T08:13:19.150Z,20.20
2017-12-01T08:15:58.586Z,22.13
2017-12-01T08:18:37.987Z,21.92
2017-12-01T08:21:05.454Z,22.95
2017-12-01T08:26:33.150Z,21.27
2017-12-01T08:29:00.626Z,20.90
2017-12-01T08:31:28.859Z,19.55
2017-12-01T08:33:56.361Z,21.90
2017-12-01T08:36:23.835Z,22.40
2017-12-01T08:38:52.089Z,21.75
2017-12-01T08:41:19.653Z,23.15
2017-12-01T08:43:47.225Z,20.92
2017-12-01T08:46:15.466Z,20.15
2017-12-01T08:48:42.921Z,20.98
2017-12-01T08:51:10.386Z,20.12
2017-12-01T08:53:37.958Z,21.40
2017-12-01T08:56:05.519Z,19.85
2017-12-01T08:58:32.998Z,19.62
2017-12-01T09:01:01.223Z,19.33
2017-12-01T09:03:28.698Z,20.27
2017-12-01T09:05:56.169Z,20.92
2017-12-01T09:08:23.649Z,19.08
2017-12-01T09:10:51.885Z,21.37
2017-12-01T09:13:19.345Z,19.90
2017-12-01T09:15:46.916Z,20.35
2017-12-01T09:18:14.385Z,19.42
2017-12-01T09:20:42.648Z,20.70
2017-12-01T09:23:10.133Z,19.33
2017-12-01T09:25:38.370Z,20.33
2017-12-01T09:28:05.932Z,19.83
2017-12-01T09:30:33.427Z,18.42
2017-12-01T09:33:00.902Z,18.50
2017-12-01T09:35:28.393Z,19.02
2017-12-01T09:37:55.970Z,19.67
2017-12-01T09:40:25.740Z,20.85
2017-12-01T09:42:53.201Z,19.42
2017-12-01T09:45:20.786Z,18.73
2017-12-01T09:47:49.058Z,18.52
2017-12-01T09:50:16.622Z,20.62
2017-12-01T09:52:44.099Z,20.58
2017-12-01T09:55:12.366Z,21.10
2017-12-01T09:57:39.842Z,20.95
2017-12-01T10:00:08.143Z,18.30
2017-12-01T10:02:35.580Z,18.98
2017-12-01T10:05:03.105Z,19.10
2017-12-01T10:07:30.587Z,17.70
2017-12-01T10:09:58.058Z,18.40
2017-12-01T10:12:25.531Z,19.30
2017-12-01T10:14:53.014Z,18.95
2017-12-01T10:17:20.486Z,19.23
2017-12-01T10:19:48.002Z,17.85
2017-12-01T10:22:15.490Z,17.33
2017-12-01T10:24:42.956Z,17.02
2017-12-01T10:27:10.534Z,18.92
2017-12-01T10:29:38.814Z,21.02
2017-12-01T10:32:07.184Z,18.45
2017-12-01T10:34:34.718Z,18.92
2017-12-01T10:37:02.185Z,17.25
2017-12-01T10:39:29.797Z,16.10
2017-12-01T10:41:57.282Z,15.23
2017-12-01T10:44:24.826Z,17.65
2017-12-01T10:46:52.323Z,16.20
2017-12-01T10:49:19.787Z,16.60
2017-12-01T10:51:47.273Z,15.77
2017-12-01T10:54:14.740Z,16.25
2017-12-01T10:56:42.264Z,16.55
2017-12-01T10:59:10.489Z,17.33
2017-12-01T11:01:37.958Z,18.00
2017-12-01T11:04:05.418Z,16.75
2017-12-01T11:06:32.893Z,16.45
2017-12-01T11:09:00.453Z,16.50
2017-12-01T11:11:27.925Z,14.25
2017-12-01T11:13:55.390Z,14.18
2017-12-01T11:16:23.625Z,16.33
2017-12-01T11:18:51.103Z,14.07
2017-12-01T11:21:19.359Z,13.10
2017-12-01T11:23:46.885Z,14.63
2017-12-01T11:26:14.354Z,13.80
2017-12-01T11:28:41.845Z,13.57
2017-12-01T11:31:09.326Z,13.10
2017-12-01T11:33:37.574Z,13.00
2017-12-01T11:36:05.137Z,14.55
2017-12-01T11:38:32.692Z,15.75
2017-12-01T11:41:00.157Z,14.85
2017-12-01T11:43:27.626Z,16.27
2017-12-01T11:45:55.876Z,15.82
2017-12-01T11:48:23.375Z,15.30
2017-12-01T11:50:51.596Z,13.52
2017-12-01T11:53:19.080Z,15.52
2017-12-01T11:55:46.550Z,15.05
2017-12-01T11:58:14.859Z,15.52
2017-12-01T12:00:57.206Z,14.13
2017-12-01T12:03:24.770Z,15.52
2017-12-01T12:05:52.235Z,15.77
2017-12-01T12:08:19.792Z,15.38
2017-12-01T12:10:47.261Z,16.45
2017-12-01T12:13:15.498Z,16.33
2017-12-01T12:15:42.957Z,15.80
2017-12-01T12:18:10.425Z,15.35
2017-12-01T12:20:37.889Z,16.02
2017-12-01T12:23:05.362Z,16.25
2017-12-01T12:25:33.606Z,13.80
2017-12-01T12:28:01.070Z,13.75
2017-12-01T12:30:28.543Z,13.30
2017-12-01T12:32:56.100Z,13.43
2017-12-01T12:35:23.570Z,14.45
2017-12-01T12:37:51.815Z,14.20
2017-12-01T12:40:19.278Z,13.73
2017-12-01T12:42:46.746Z,13.38
2017-12-01T12:45:14.213Z,12.05
2017-12-01T12:47:42.523Z,13.75
2017-12-01T12:50:09.981Z,13.07
2017-12-01T12:52:37.481Z,13.68
2017-12-01T12:55:05.042Z,14.00
2017-12-01T12:57:32.518Z,14.43
2017-12-01T13:00:00.773Z,13.90
2017-12-01T13:02:28.250Z,12.80
2017-12-01T13:04:56.483Z,14.35
2017-12-01T13:07:23.959Z,14.65
2017-12-01T13:09:51.430Z,13.60
2017-12-01T13:12:18.908Z,12.70
2017-12-01T13:14:47.144Z,14.48
2017-12-01T13:17:15.053Z,14.65
2017-12-01T13:19:42.514Z,14.07
2017-12-01T13:22:09.985Z,13.00
2017-12-01T13:24:37.446Z,12.95
2017-12-01T13:27:04.914Z,12.80
2017-12-01T13:29:32.386Z,13.50
2017-12-01T13:31:59.873Z,13.45
2017-12-01T13:34:28.098Z,12.20
2017-12-01T13:36:55.562Z,13.55
2017-12-01T13:39:23.051Z,14.60
2017-12-01T13:41:50.510Z,13.82
2017-12-01T13:44:17.972Z,13.70
2017-12-01T13:46:46.212Z,12.90
2017-12-01T13:49:13.710Z,10.73
2017-12-01T13:51:41.939Z,10.35
2017-12-01T13:54:09.413Z,11.63
2017-12-01T13:56:36.873Z,11.55
2017-12-01T13:59:04.350Z,13.45
2017-12-01T14:01:32.581Z,11.12
2017-12-01T14:04:00.049Z,12.23
2017-12-01T14:06:27.513Z,12.00
2017-12-01T14:08:54.987Z,11.60
2017-12-01T14:11:22.492Z,13.45
2017-12-01T14:13:49.958Z,11.45
2017-12-01T14:16:17.432Z,11.90
2017-12-01T14:18:44.897Z,11.73
2017-12-01T14:21:12.372Z,13.07
2017-12-01T14:23:40.994Z,11.35
2017-12-01T14:26:08.466Z,12.63
2017-12-01T14:28:35.930Z,15.48
2017-12-01T14:31:03.427Z,13.20
2017-12-01T14:33:30.895Z,17.27
2017-12-01T14:35:59.158Z,12.95
2017-12-01T14:38:26.622Z,12.20
2017-12-01T14:40:54.893Z,13.45
2017-12-01T14:43:22.441Z,12.30
2017-12-01T14:45:49.910Z,12.88
2017-12-01T14:48:17.365Z,12.10
2017-12-01T14:50:44.829Z,13.20
2017-12-01T14:53:13.089Z,13.05
2017-12-01T14:55:41.346Z,12.80
2017-12-01T14:58:08.814Z,15.40
2017-12-01T15:00:36.297Z,12.77
2017-12-01T15:03:04.554Z,14.45
2017-12-01T15:05:32.022Z,12.57
2017-12-01T15:08:00.341Z,14.68
2017-12-01T15:10:27.799Z,13.00
2017-12-01T15:12:55.273Z,14.07
2017-12-01T15:15:22.758Z,14.13
2017-12-01T15:17:50.229Z,13.07
2017-12-01T15:20:18.458Z,13.55
2017-12-01T15:22:45.929Z,12.40
2017-12-01T15:25:13.428Z,14.15
2017-12-01T15:27:41.667Z,14.95
2017-12-01T15:30:09.149Z,13.98
2017-12-01T15:32:36.626Z,13.90
2017-12-01T15:35:04.211Z,15.32
2017-12-01T15:37:31.674Z,14.30
2017-12-01T15:39:59.144Z,14.73
2017-12-01T15:42:26.633Z,15.32
2017-12-01T15:44:54.870Z,14.80
2017-12-01T15:47:22.338Z,14.80
2017-12-01T15:49:49.809Z,15.02
2017-12-01T15:52:17.288Z,15.70
2017-12-01T15:54:44.778Z,15.50
2017-12-01T15:57:12.250Z,15.05
2017-12-01T15:59:39.737Z,16.77
2017-12-01T16:02:07.201Z,16.40
2017-12-01T16:04:34.675Z,14.55
2017-12-01T16:07:02.897Z,15.57
2017-12-01T16:09:30.381Z,14.80
2017-12-01T16:11:57.856Z,15.63
2017-12-01T16:14:26.093Z,15.05
2017-12-01T16:16:53.558Z,14.82
2017-12-01T16:19:21.021Z,15.55
2017-12-01T16:21:48.482Z,16.00
2017-12-01T16:24:15.958Z,15.90
2017-12-01T16:26:43.417Z,16.83
2017-12-01T16:29:11.701Z,16.30
2017-12-01T16:31:39.126Z,16.17
2017-12-01T16:34:06.597Z,15.90
2017-12-01T16:36:34.070Z,15.18
2017-12-01T16:39:02.323Z,15.57
2017-12-01T16:41:29.795Z,15.07
2017-12-01T16:43:58.062Z,14.87
2017-12-01T16:46:25.619Z,14.90
2017-12-01T16:48:53.090Z,14.85
2017-12-01T16:51:21.821Z,15.30
2017-12-01T16:53:49.298Z,14.87
2017-12-01T16:56:16.766Z,16.10
2017-12-01T16:58:44.242Z,13.68
2017-12-01T17:01:12.481Z,14.87
2017-12-01T17:03:39.982Z,15.57
2017-12-01T17:06:08.218Z,16.02
2017-12-01T17:08:35.695Z,14.13
2017-12-01T17:11:03.176Z,13.98
2017-12-01T17:13:31.887Z,14.65
2017-12-01T17:15:59.755Z,13.43
2017-12-01T17:18:27.362Z,13.85
2017-12-01T17:20:54.829Z,14.45
2017-12-01T17:23:23.091Z,13.80
2017-12-01T17:25:50.557Z,15.07
2017-12-01T17:28:18.789Z,15.48
2017-12-01T17:30:46.252Z,15.90
2017-12-01T17:33:13.753Z,15.48
2017-12-01T17:35:41.977Z,15.05
2017-12-01T17:38:09.446Z,14.25
2017-12-01T17:40:36.930Z,14.50
2017-12-01T17:43:04.414Z,12.90
2017-12-01T17:45:31.882Z,14.90
2017-12-01T17:47:59.353Z,16.02
2017-12-01T17:50:26.904Z,15.68
2017-12-01T17:52:54.364Z,15.02
2017-12-01T17:55:21.835Z,15.38
2017-12-01T17:57:49.294Z,14.68
2017-12-01T18:00:16.771Z,15.07
2017-12-01T18:02:44.241Z,14.02
2017-12-01T18:05:11.716Z,14.55
2017-12-01T18:07:39.955Z,15.07
2017-12-01T18:10:07.447Z,13.70
2017-12-01T18:12:35.701Z,14.32
2017-12-01T18:15:03.313Z,18.62
2017-12-01T18:17:30.781Z,22.37
2017-12-01T18:19:58.246Z,15.18
2017-12-01T18:22:25.726Z,14.23
2017-12-01T18:24:53.195Z,15.40
2017-12-01T18:27:20.754Z,15.38
2017-12-01T18:29:48.214Z,15.23
2017-12-01T18:32:16.470Z,15.48
2017-12-01T18:34:43.937Z,15.57
2017-12-01T18:37:12.170Z,14.23
2017-12-01T18:39:39.651Z,16.08
2017-12-01T18:42:07.130Z,15.15
2017-12-01T18:44:34.645Z,15.55
2017-12-01T18:47:02.138Z,15.30
2017-12-01T18:49:29.595Z,16.10
2017-12-01T18:51:57.061Z,17.55
2017-12-01T18:54:24.614Z,16.83
2017-12-01T18:56:52.118Z,15.43
2017-12-01T18:59:19.582Z,16.80
2017-12-01T19:01:47.048Z,15.13
2017-12-01T19:04:14.513Z,16.42
2017-12-01T19:06:42.050Z,16.60
2017-12-01T19:09:10.418Z,16.30
2017-12-01T19:11:37.885Z,16.12
2017-12-01T19:14:05.359Z,15.48
2017-12-01T19:16:32.851Z,16.83
2017-12-01T19:19:00.352Z,17.20
2017-12-01T19:21:27.809Z,16.90
2017-12-01T19:23:55.328Z,17.95
2017-12-01T19:26:23.561Z,17.20
2017-12-01T19:28:51.053Z,17.15
2017-12-01T19:31:18.612Z,16.85
2017-12-01T19:33:46.080Z,16.00
2017-12-01T19:36:14.319Z,16.92
2017-12-01T19:38:41.785Z,17.17
2017-12-01T19:41:09.301Z,17.58
2017-12-01T19:43:36.786Z,16.98
2017-12-01T19:46:04.262Z,18.50
2017-12-01T19:48:31.731Z,17.12
2017-12-01T19:50:59.278Z,15.32
2017-12-01T19:53:27.630Z,16.87
2017-12-01T19:55:55.129Z,18.58
2017-12-01T19:58:22.694Z,17.08
2017-12-01T20:00:51.006Z,17.67
2017-12-01T20:03:18.470Z,18.33
2017-12-01T20:05:46.024Z,18.08
2017-12-01T20:08:13.505Z,18.05
2017-12-01T20:10:40.968Z,15.90
2017-12-01T20:13:08.449Z,17.17
2017-12-01T20:15:35.915Z,18.62
2017-12-01T20:18:04.225Z,17.67
2017-12-01T20:20:31.694Z,17.12
2017-12-01T20:22:59.170Z,16.08
2017-12-01T20:25:26.653Z,15.68
2017-12-01T20:27:54.128Z,17.77
2017-12-01T20:30:22.357Z,19.23
2017-12-01T20:32:49.929Z,16.83
2017-12-01T20:35:17.385Z,15.75
2017-12-01T20:37:44.854Z,16.85
2017-12-01T20:40:12.321Z,16.25
2017-12-01T20:42:39.914Z,17.80
2017-12-01T20:45:07.380Z,15.45
2017-12-01T20:47:34.848Z,16.45
2017-12-01T20:50:02.342Z,16.30
2017-12-01T20:52:30.575Z,16.60
2017-12-01T20:54:58.054Z,16.27
2017-12-01T20:57:25.575Z,16.65
2017-12-01T20:59:53.236Z,15.77
2017-12-01T21:02:20.742Z,15.18
2017-12-01T21:04:48.352Z,16.33
2017-12-01T21:07:15.912Z,14.73
2017-12-01T21:09:43.593Z,16.60
2017-12-01T21:12:11.236Z,16.50
2017-12-01T21:14:38.718Z,15.63
2017-12-01T21:17:06.389Z,16.23
2017-12-01T21:19:33.849Z,16.73
2017-12-01T21:22:01.319Z,19.58
2017-12-01T21:24:28.777Z,16.23
2017-12-01T21:26:56.249Z,16.23
2017-12-01T21:29:24.745Z,16.55
2017-12-01T21:31:52.270Z,16.15
2017-12-01T21:34:19.740Z,16.05
2017-12-01T21:36:47.986Z,16.85
2017-12-01T21:39:15.559Z,15.60
2017-12-01T21:41:43.810Z,13.98
2017-12-01T21:44:11.292Z,15.50
2017-12-01T21:46:38.758Z,14.75
2017-12-01T21:49:07.192Z,15.63
2017-12-01T21:51:34.691Z,15.00
2017-12-01T21:54:02.398Z,14.90
2017-12-01T21:56:29.866Z,15.45
2017-12-01T21:58:57.721Z,14.50
2017-12-01T22:01:25.204Z,15.50
2017-12-01T22:03:53.451Z,13.27
2017-12-01T22:06:20.979Z,14.07
2017-12-01T22:08:49.216Z,15.65
2017-12-01T22:11:17.493Z,16.33
2017-12-01T22:13:44.986Z,14.27
2017-12-01T22:16:13.215Z,15.07
2017-12-01T22:18:40.683Z,14.07
2017-12-01T22:21:08.206Z,14.90
2017-12-01T22:23:35.682Z,14.55
2017-12-01T22:26:03.204Z,14.93
2017-12-01T22:28:30.642Z,14.05
2017-12-01T22:30:58.875Z,13.90
2017-12-01T22:33:26.341Z,13.98
2017-12-01T22:35:53.821Z,14.60
2017-12-01T22:38:21.322Z,14.13
2017-12-01T22:40:48.781Z,13.38
2017-12-01T22:43:16.273Z,13.52
2017-12-01T22:45:43.734Z,12.95
2017-12-01T22:48:11.202Z,14.15
2017-12-01T22:50:38.757Z,13.88
2017-12-01T22:53:06.230Z,13.27
2017-12-01T22:55:34.484Z,14.95
2017-12-01T22:58:01.947Z,13.77
2017-12-01T23:00:29.469Z,13.25
2017-12-01T23:02:56.964Z,16.05
2017-12-01T23:05:24.521Z,14.35
2017-12-01T23:07:51.993Z,12.23
2017-12-01T23:10:20.232Z,15.40
2017-12-01T23:12:47.691Z,14.23
2017-12-01T23:15:15.219Z,14.82
2017-12-01T23:17:42.813Z,14.90
2017-12-01T23:20:10.289Z,14.90
2017-12-01T23:22:37.771Z,14.38
2017-12-01T23:25:06.000Z,13.80
2017-12-01T23:27:33.574Z,12.98
2017-12-01T23:30:01.036Z,14.23
2017-12-01T23:32:28.594Z,13.23
2017-12-01T23:34:56.059Z,13.38
2017-12-01T23:37:24.294Z,14.73
2017-12-01T23:39:51.759Z,13.80
2017-12-01T23:42:19.235Z,16.62
2017-12-01T23:44:46.695Z,16.55
2017-12-01T23:47:14.259Z,16.90
2017-12-01T23:49:42.536Z,15.60
2017-12-01T23:52:10.002Z,13.85
2017-12-01T23:54:38.231Z,13.23
2017-12-01T23:57:05.712Z,14.43
2017-12-01T23:59:33.178Z,15.93
